Calgary International Airport
CYYC : now visible

Airfield :











YOU CAN JOIN US ON...

 
LOGIN :

Register | Disclaimer

   EN    FR    IT 

 









Legend :    VFR   Marginal VFR   IFR   Intensive IFR   Very Intensive IFR
Visi :
Ceiling :
>= 8 km
>= 3000ft
5 to 8 km
1000 to 3000 ft
1500m to 5 km
500 to 1000 ft
800 to 1500m
200 to 500 ft
< 800m
< 200 ft
Symbols :   Thunderstorms  Fog  Heavy snow  Heavy precipitations  Wind > 20 kt







- Airport Elevation : 3557 ft
- IATA code : YYC


CYYC - Calgary International

CURRENT METAR :
  • 202000Z 01014KT 30SM FEW035 FEW085 FEW180 15/06 A2992 RMK CU1AC1AC1 AC TR AC TR DIST SH S-W TCU TOPS SLP143 DENSITY ALT 4500FT

EXPIRED METARs :
  • 201900Z 01013KT 25SM FEW035 SCT060 BKN085 15/06 A2991 RMK CU2SC1AC2 DIST SH SW-W TCU TOPS SLP141 DENSITY ALT 4500FT
  • 201824Z 01013KT 340V040 30SM FEW030TCU FEW045 FEW060 BKN080 14/06 A2992 RMK TCU1SC1SC1AC5 TCU TR SE DIST SH SW MTS SLP145 DENSITY ALT 4400FT
  • 201800Z 34010KT 40SM -SHRA SCT040TCU BKN075 BKN095 BKN150 14/06 A2991 RMK TCU3AC3AC1AC1 AC TR AC TR SLP144 DENSITY ALT 4400FT
  • 201700Z 01008KT 40SM FEW050 BKN075 BKN210 13/06 A2990 RMK SC2AC5CI1 CI TR VIRGA S-NW SLP142 DENSITY ALT 4300FT

TAF TAF CYYC
Valid from the 20 at 18:00 until the 21 at 18:00 UTC


201741Z 2018/2118 36010KT P6SM SCT050 BKN070 BKN210
TEMPO 2018/2103 P6SM -SHRA BKN050 OVC070
BECMG 2018/2020 36012G22KT
FM210300 01008KT P6SM SCT070
BECMG 2104/2106 27007KT RMK NXT FCST BY 202100Z
No reported NOTAMs for that airfield.



MET'MAP, your aeronautical weather chart ! - Copyright ORBIFLY December 2007 - Disclaimer

ORBIFLY MET'MAP TEAM :

Programming & Development : Alexandra Zaïnal
Concept & Development : Baudouin d'Aumeries
Co-Development & Prog : Marc-Olivier Méhu
Technical & hardware support : Manuel Goepfert

Contact : metmap@orbifly.com




SOURCES & CREDITS :

   NOAA       Earth
Advisory